sensor_id;sensor_type;location;lat;lon;timestamp;temperature;humidity
24518;DHT22;12678;51.336;12.406;2024-03-23T00:56:10;11.10;99.90
24518;DHT22;12678;51.336;12.406;2024-03-23T00:58:36;11.10;99.90
24518;DHT22;12678;51.336;12.406;2024-03-23T01:01:01;11.10;99.90
24518;DHT22;12678;51.336;12.406;2024-03-23T01:03:29;11.10;99.90
24518;DHT22;12678;51.336;12.406;2024-03-23T01:05:58;11.10;99.90
24518;DHT22;12678;51.336;12.406;2024-03-23T01:08:23;11.10;99.90
24518;DHT22;12678;51.336;12.406;2024-03-23T01:10:59;11.10;99.90
24518;DHT22;12678;51.336;12.406;2024-03-23T01:13:26;11.10;99.90
24518;DHT22;12678;51.336;12.406;2024-03-23T01:15:53;11.10;99.90
24518;DHT22;12678;51.336;12.406;2024-03-23T01:18:19;11.10;99.90
24518;DHT22;12678;51.336;12.406;2024-03-23T01:20:45;11.00;99.90
24518;DHT22;12678;51.336;12.406;2024-03-23T01:23:11;11.10;99.90
24518;DHT22;12678;51.336;12.406;2024-03-23T01:25:37;11.10;99.90
24518;DHT22;12678;51.336;12.406;2024-03-23T01:28:03;11.10;99.90
24518;DHT22;12678;51.336;12.406;2024-03-23T01:30:29;11.00;99.90
24518;DHT22;12678;51.336;12.406;2024-03-23T01:32:56;11.00;99.90
24518;DHT22;12678;51.336;12.406;2024-03-23T01:35:21;11.00;99.90
24518;DHT22;12678;51.336;12.406;2024-03-23T01:37:47;10.90;99.90
24518;DHT22;12678;51.336;12.406;2024-03-23T01:40:12;10.90;99.90
24518;DHT22;12678;51.336;12.406;2024-03-23T01:42:40;10.90;99.90
24518;DHT22;12678;51.336;12.406;2024-03-23T01:45:08;10.80;99.90
24518;DHT22;12678;51.336;12.406;2024-03-23T01:47:34;10.80;99.90
24518;DHT22;12678;51.336;12.406;2024-03-23T01:50:01;10.70;99.90
24518;DHT22;12678;51.336;12.406;2024-03-23T01:52:27;10.70;99.90
24518;DHT22;12678;51.336;12.406;2024-03-23T01:54:53;10.60;99.90
24518;DHT22;12678;51.336;12.406;2024-03-23T01:57:19;10.60;99.90
24518;DHT22;12678;51.336;12.406;2024-03-23T01:59:48;10.60;99.90
24518;DHT22;12678;51.336;12.406;2024-03-23T02:02:14;10.60;99.90
24518;DHT22;12678;51.336;12.406;2024-03-23T02:04:40;10.60;99.90
24518;DHT22;12678;51.336;12.406;2024-03-23T02:07:08;10.60;99.90
24518;DHT22;12678;51.336;12.406;2024-03-23T02:09:34;10.60;99.90
24518;DHT22;12678;51.336;12.406;2024-03-23T02:12:02;10.60;99.90
24518;DHT22;12678;51.336;12.406;2024-03-23T02:14:27;10.60;99.90
24518;DHT22;12678;51.336;12.406;2024-03-23T02:16:53;10.60;99.90
24518;DHT22;12678;51.336;12.406;2024-03-23T02:19:18;10.60;99.90
24518;DHT22;12678;51.336;12.406;2024-03-23T02:21:44;10.60;99.90
24518;DHT22;12678;51.336;12.406;2024-03-23T02:24:10;10.60;99.90
24518;DHT22;12678;51.336;12.406;2024-03-23T02:26:35;10.60;99.90
24518;DHT22;12678;51.336;12.406;2024-03-23T02:29:01;10.50;99.90
24518;DHT22;12678;51.336;12.406;2024-03-23T02:31:27;10.50;99.90
24518;DHT22;12678;51.336;12.406;2024-03-23T02:33:52;10.40;99.90
24518;DHT22;12678;51.336;12.406;2024-03-23T02:36:18;10.30;99.90
24518;DHT22;12678;51.336;12.406;2024-03-23T02:38:43;10.10;99.90
24518;DHT22;12678;51.336;12.406;2024-03-23T02:41:09;10.00;99.90
24518;DHT22;12678;51.336;12.406;2024-03-23T02:43:34;10.00;99.90
24518;DHT22;12678;51.336;12.406;2024-03-23T02:46:00;9.90;99.90
24518;DHT22;12678;51.336;12.406;2024-03-23T02:48:26;10.00;99.90
24518;DHT22;12678;51.336;12.406;2024-03-23T02:50:51;10.00;99.90
24518;DHT22;12678;51.336;12.406;2024-03-23T02:53:17;10.00;99.90
24518;DHT22;12678;51.336;12.406;2024-03-23T02:55:43;9.90;99.90
24518;DHT22;12678;51.336;12.406;2024-03-23T02:58:09;9.90;99.90
24518;DHT22;12678;51.336;12.406;2024-03-23T03:00:34;9.90;99.90
24518;DHT22;12678;51.336;12.406;2024-03-23T03:03:00;10.00;99.90
24518;DHT22;12678;51.336;12.406;2024-03-23T03:05:25;10.00;99.90
24518;DHT22;12678;51.336;12.406;2024-03-23T03:07:51;10.00;99.90
24518;DHT22;12678;51.336;12.406;2024-03-23T03:10:16;10.10;99.90
24518;DHT22;12678;51.336;12.406;2024-03-23T03:12:42;10.10;99.90
24518;DHT22;12678;51.336;12.406;2024-03-23T03:15:08;9.90;99.90
24518;DHT22;12678;51.336;12.406;2024-03-23T03:17:34;9.80;99.90
24518;DHT22;12678;51.336;12.406;2024-03-23T03:20:00;9.90;99.90
24518;DHT22;12678;51.336;12.406;2024-03-23T03:22:25;9.90;99.90
24518;DHT22;12678;51.336;12.406;2024-03-23T03:24:51;10.00;99.90
24518;DHT22;12678;51.336;12.406;2024-03-23T03:27:16;10.00;99.90
24518;DHT22;12678;51.336;12.406;2024-03-23T03:29:42;10.00;99.90
24518;DHT22;12678;51.336;12.406;2024-03-23T03:32:07;9.90;99.90
24518;DHT22;12678;51.336;12.406;2024-03-23T03:34:33;9.80;99.90
24518;DHT22;12678;51.336;12.406;2024-03-23T03:36:59;9.80;99.90
24518;DHT22;12678;51.336;12.406;2024-03-23T03:39:25;9.90;99.90
24518;DHT22;12678;51.336;12.406;2024-03-23T03:41:50;9.80;99.90
24518;DHT22;12678;51.336;12.406;2024-03-23T03:44:16;9.80;99.90
24518;DHT22;12678;51.336;12.406;2024-03-23T03:46:42;9.80;99.90
24518;DHT22;12678;51.336;12.406;2024-03-23T03:49:08;9.80;99.90
24518;DHT22;12678;51.336;12.406;2024-03-23T03:51:33;9.90;99.90
24518;DHT22;12678;51.336;12.406;2024-03-23T03:53:59;9.70;99.90
24518;DHT22;12678;51.336;12.406;2024-03-23T03:56:24;9.70;99.90
24518;DHT22;12678;51.336;12.406;2024-03-23T03:58:50;9.80;99.90
24518;DHT22;12678;51.336;12.406;2024-03-23T04:01:15;9.80;99.90
24518;DHT22;12678;51.336;12.406;2024-03-23T04:03:42;9.80;99.90
24518;DHT22;12678;51.336;12.406;2024-03-23T04:06:09;9.80;99.90
24518;DHT22;12678;51.336;12.406;2024-03-23T04:08:35;9.80;99.90
24518;DHT22;12678;51.336;12.406;2024-03-23T04:11:01;9.70;99.90
24518;DHT22;12678;51.336;12.406;2024-03-23T04:13:26;9.70;99.90
24518;DHT22;12678;51.336;12.406;2024-03-23T04:15:55;9.80;99.90
24518;DHT22;12678;51.336;12.406;2024-03-23T04:18:21;9.80;99.90
24518;DHT22;12678;51.336;12.406;2024-03-23T04:20:48;9.80;99.90
24518;DHT22;12678;51.336;12.406;2024-03-23T04:23:14;9.70;99.90
24518;DHT22;12678;51.336;12.406;2024-03-23T04:25:40;9.70;99.90
24518;DHT22;12678;51.336;12.406;2024-03-23T04:28:05;9.80;99.90
24518;DHT22;12678;51.336;12.406;2024-03-23T04:30:32;9.80;99.90
24518;DHT22;12678;51.336;12.406;2024-03-23T04:32:57;9.80;99.90
24518;DHT22;12678;51.336;12.406;2024-03-23T04:35:24;9.80;99.90
24518;DHT22;12678;51.336;12.406;2024-03-23T04:37:51;9.80;99.90
24518;DHT22;12678;51.336;12.406;2024-03-23T04:40:17;9.70;99.90
24518;DHT22;12678;51.336;12.406;2024-03-23T04:42:43;9.80;99.90
24518;DHT22;12678;51.336;12.406;2024-03-23T04:45:09;9.70;99.90
24518;DHT22;12678;51.336;12.406;2024-03-23T04:47:36;9.80;99.90
24518;DHT22;12678;51.336;12.406;2024-03-23T04:50:03;9.80;99.90
24518;DHT22;12678;51.336;12.406;2024-03-23T04:52:29;9.70;99.90
24518;DHT22;12678;51.336;12.406;2024-03-23T04:54:55;9.70;99.90
24518;DHT22;12678;51.336;12.406;2024-03-23T04:57:20;9.80;99.90
24518;DHT22;12678;51.336;12.406;2024-03-23T04:59:46;9.70;99.90
24518;DHT22;12678;51.336;12.406;2024-03-23T05:02:13;9.70;99.90
24518;DHT22;12678;51.336;12.406;2024-03-23T05:04:38;9.70;99.90
24518;DHT22;12678;51.336;12.406;2024-03-23T05:07:04;9.60;99.90
24518;DHT22;12678;51.336;12.406;2024-03-23T05:09:33;9.60;99.90
24518;DHT22;12678;51.336;12.406;2024-03-23T05:11:59;9.70;99.90
24518;DHT22;12678;51.336;12.406;2024-03-23T05:14:28;9.60;99.90
24518;DHT22;12678;51.336;12.406;2024-03-23T05:16:54;9.60;99.90
24518;DHT22;12678;51.336;12.406;2024-03-23T05:19:19;9.50;99.90
24518;DHT22;12678;51.336;12.406;2024-03-23T05:21:45;9.60;99.90
24518;DHT22;12678;51.336;12.406;2024-03-23T05:24:11;9.60;99.90
24518;DHT22;12678;51.336;12.406;2024-03-23T05:26:37;9.60;99.90
24518;DHT22;12678;51.336;12.406;2024-03-23T05:29:03;9.60;99.90
24518;DHT22;12678;51.336;12.406;2024-03-23T05:31:30;9.40;99.90
24518;DHT22;12678;51.336;12.406;2024-03-23T05:33:56;9.50;99.90
24518;DHT22;12678;51.336;12.406;2024-03-23T05:36:22;9.50;99.90
24518;DHT22;12678;51.336;12.406;2024-03-23T05:38:49;9.60;99.90
24518;DHT22;12678;51.336;12.406;2024-03-23T05:41:14;9.50;99.90
24518;DHT22;12678;51.336;12.406;2024-03-23T05:43:40;9.40;99.90
24518;DHT22;12678;51.336;12.406;2024-03-23T05:46:05;9.50;99.90
24518;DHT22;12678;51.336;12.406;2024-03-23T05:48:31;9.50;99.90
24518;DHT22;12678;51.336;12.406;2024-03-23T05:50:57;9.40;99.90
24518;DHT22;12678;51.336;12.406;2024-03-23T05:53:24;9.40;99.90
24518;DHT22;12678;51.336;12.406;2024-03-23T05:55:50;9.40;99.90
24518;DHT22;12678;51.336;12.406;2024-03-23T05:58:17;9.50;99.90
24518;DHT22;12678;51.336;12.406;2024-03-23T06:00:44;9.50;99.90
24518;DHT22;12678;51.336;12.406;2024-03-23T06:03:10;9.50;99.90
24518;DHT22;12678;51.336;12.406;2024-03-23T06:05:39;9.60;99.90
24518;DHT22;12678;51.336;12.406;2024-03-23T06:08:05;9.60;99.90
24518;DHT22;12678;51.336;12.406;2024-03-23T06:10:30;9.60;99.90
24518;DHT22;12678;51.336;12.406;2024-03-23T06:12:57;9.50;99.90
24518;DHT22;12678;51.336;12.406;2024-03-23T06:15:24;9.30;99.90
24518;DHT22;12678;51.336;12.406;2024-03-23T06:17:49;9.30;99.90
24518;DHT22;12678;51.336;12.406;2024-03-23T06:20:15;9.40;99.90
24518;DHT22;12678;51.336;12.406;2024-03-23T06:22:40;9.50;99.90
24518;DHT22;12678;51.336;12.406;2024-03-23T06:25:06;9.40;99.90
24518;DHT22;12678;51.336;12.406;2024-03-23T06:27:32;9.30;99.90
24518;DHT22;12678;51.336;12.406;2024-03-23T06:29:58;9.20;99.90
24518;DHT22;12678;51.336;12.406;2024-03-23T06:32:24;9.30;99.90
24518;DHT22;12678;51.336;12.406;2024-03-23T06:34:50;9.30;99.90
24518;DHT22;12678;51.336;12.406;2024-03-23T06:37:15;9.40;99.90
24518;DHT22;12678;51.336;12.406;2024-03-23T06:39:41;9.40;99.90
24518;DHT22;12678;51.336;12.406;2024-03-23T06:42:07;9.50;99.90
24518;DHT22;12678;51.336;12.406;2024-03-23T06:44:33;9.50;99.90
24518;DHT22;12678;51.336;12.406;2024-03-23T06:46:59;9.50;99.90
24518;DHT22;12678;51.336;12.406;2024-03-23T06:49:24;9.50;99.90
24518;DHT22;12678;51.336;12.406;2024-03-23T06:51:50;9.40;99.90
24518;DHT22;12678;51.336;12.406;2024-03-23T06:54:17;9.30;99.90
24518;DHT22;12678;51.336;12.406;2024-03-23T06:56:44;9.30;99.90
24518;DHT22;12678;51.336;12.406;2024-03-23T06:59:09;9.30;99.90
24518;DHT22;12678;51.336;12.406;2024-03-23T07:01:35;9.30;99.90
24518;DHT22;12678;51.336;12.406;2024-03-23T07:04:01;9.30;99.90
24518;DHT22;12678;51.336;12.406;2024-03-23T07:06:27;9.30;99.90
24518;DHT22;12678;51.336;12.406;2024-03-23T07:08:52;9.40;99.90
24518;DHT22;12678;51.336;12.406;2024-03-23T07:11:22;9.40;99.90
24518;DHT22;12678;51.336;12.406;2024-03-23T07:13:54;9.40;99.90
24518;DHT22;12678;51.336;12.406;2024-03-23T07:16:20;9.50;99.90
24518;DHT22;12678;51.336;12.406;2024-03-23T07:18:46;9.50;99.90
24518;DHT22;12678;51.336;12.406;2024-03-23T07:21:12;9.50;99.90
24518;DHT22;12678;51.336;12.406;2024-03-23T07:23:39;9.50;99.90
24518;DHT22;12678;51.336;12.406;2024-03-23T07:26:07;9.60;99.90
24518;DHT22;12678;51.336;12.406;2024-03-23T07:28:33;9.60;99.90
24518;DHT22;12678;51.336;12.406;2024-03-23T07:31:20;9.50;99.90
24518;DHT22;12678;51.336;12.406;2024-03-23T07:33:48;9.40;99.90
24518;DHT22;12678;51.336;12.406;2024-03-23T07:36:14;9.30;99.90
24518;DHT22;12678;51.336;12.406;2024-03-23T07:38:43;9.40;99.90
24518;DHT22;12678;51.336;12.406;2024-03-23T07:41:15;9.40;99.90
24518;DHT22;12678;51.336;12.406;2024-03-23T07:43:42;9.30;99.90
24518;DHT22;12678;51.336;12.406;2024-03-23T07:46:08;9.30;99.90
24518;DHT22;12678;51.336;12.406;2024-03-23T07:48:34;9.20;99.90
24518;DHT22;12678;51.336;12.406;2024-03-23T07:51:10;9.20;99.90
24518;DHT22;12678;51.336;12.406;2024-03-23T07:53:37;9.00;99.90
24518;DHT22;12678;51.336;12.406;2024-03-23T07:56:07;8.70;99.90
24518;DHT22;12678;51.336;12.406;2024-03-23T07:58:34;8.40;99.90
24518;DHT22;12678;51.336;12.406;2024-03-23T08:01:07;8.20;99.90
24518;DHT22;12678;51.336;12.406;2024-03-23T08:03:36;7.70;99.90
24518;DHT22;12678;51.336;12.406;2024-03-23T08:06:16;7.40;99.90
24518;DHT22;12678;51.336;12.406;2024-03-23T08:08:44;7.10;99.90
24518;DHT22;12678;51.336;12.406;2024-03-23T08:11:10;7.00;99.90
24518;DHT22;12678;51.336;12.406;2024-03-23T08:13:41;6.80;99.90
24518;DHT22;12678;51.336;12.406;2024-03-23T08:16:07;6.60;99.90
24518;DHT22;12678;51.336;12.406;2024-03-23T08:18:34;6.50;99.90
24518;DHT22;12678;51.336;12.406;2024-03-23T08:21:04;6.40;99.90
24518;DHT22;12678;51.336;12.406;2024-03-23T08:23:34;6.30;99.90
24518;DHT22;12678;51.336;12.406;2024-03-23T08:26:06;6.20;99.90
24518;DHT22;12678;51.336;12.406;2024-03-23T08:28:32;6.20;99.90
24518;DHT22;12678;51.336;12.406;2024-03-23T08:31:10;6.20;99.90
24518;DHT22;12678;51.336;12.406;2024-03-23T08:33:36;6.20;99.90
24518;DHT22;12678;51.336;12.406;2024-03-23T08:36:07;6.10;99.90
24518;DHT22;12678;51.336;12.406;2024-03-23T08:38:33;6.10;99.90
24518;DHT22;12678;51.336;12.406;2024-03-23T08:40:59;6.10;99.90
24518;DHT22;12678;51.336;12.406;2024-03-23T08:43:26;6.10;99.90
24518;DHT22;12678;51.336;12.406;2024-03-23T08:45:52;6.00;99.90
24518;DHT22;12678;51.336;12.406;2024-03-23T08:48:19;5.90;99.90
24518;DHT22;12678;51.336;12.406;2024-03-23T08:50:46;5.90;99.90
24518;DHT22;12678;51.336;12.406;2024-03-23T08:53:12;5.70;99.90
24518;DHT22;12678;51.336;12.406;2024-03-23T08:55:37;5.70;99.90
24518;DHT22;12678;51.336;12.406;2024-03-23T08:58:03;5.70;99.90
24518;DHT22;12678;51.336;12.406;2024-03-23T09:00:29;5.80;99.90
24518;DHT22;12678;51.336;12.406;2024-03-23T09:02:55;5.80;99.90
24518;DHT22;12678;51.336;12.406;2024-03-23T09:05:23;5.80;99.90
24518;DHT22;12678;51.336;12.406;2024-03-23T09:07:49;5.90;99.90
24518;DHT22;12678;51.336;12.406;2024-03-23T09:10:15;5.90;99.90
24518;DHT22;12678;51.336;12.406;2024-03-23T09:12:41;6.00;99.90
24518;DHT22;12678;51.336;12.406;2024-03-23T09:15:06;6.10;99.90
24518;DHT22;12678;51.336;12.406;2024-03-23T09:17:32;6.20;99.90
24518;DHT22;12678;51.336;12.406;2024-03-23T09:19:58;6.30;99.90
24518;DHT22;12678;51.336;12.406;2024-03-23T09:22:24;6.40;99.90
24518;DHT22;12678;51.336;12.406;2024-03-23T09:24:49;6.40;99.90
24518;DHT22;12678;51.336;12.406;2024-03-23T09:27:15;6.50;99.90
24518;DHT22;12678;51.336;12.406;2024-03-23T09:29:40;6.50;99.90
24518;DHT22;12678;51.336;12.406;2024-03-23T09:32:07;6.60;99.90
24518;DHT22;12678;51.336;12.406;2024-03-23T09:34:34;6.70;99.90
24518;DHT22;12678;51.336;12.406;2024-03-23T09:36:59;6.80;99.90
24518;DHT22;12678;51.336;12.406;2024-03-23T09:39:25;6.90;99.90
24518;DHT22;12678;51.336;12.406;2024-03-23T09:41:50;6.90;99.90
24518;DHT22;12678;51.336;12.406;2024-03-23T09:44:21;7.00;99.90
24518;DHT22;12678;51.336;12.406;2024-03-23T09:46:47;7.10;99.90
24518;DHT22;12678;51.336;12.406;2024-03-23T09:49:13;7.10;99.90
24518;DHT22;12678;51.336;12.406;2024-03-23T09:51:38;7.10;99.90
24518;DHT22;12678;51.336;12.406;2024-03-23T09:54:04;7.10;99.90
24518;DHT22;12678;51.336;12.406;2024-03-23T09:56:29;6.80;99.90
24518;DHT22;12678;51.336;12.406;2024-03-23T09:59:02;6.90;99.90
24518;DHT22;12678;51.336;12.406;2024-03-23T10:01:30;7.00;99.90
24518;DHT22;12678;51.336;12.406;2024-03-23T10:03:55;7.00;99.90
24518;DHT22;12678;51.336;12.406;2024-03-23T10:06:22;7.00;99.90
24518;DHT22;12678;51.336;12.406;2024-03-23T10:08:50;7.00;99.90
24518;DHT22;12678;51.336;12.406;2024-03-23T10:11:17;7.00;99.90
24518;DHT22;12678;51.336;12.406;2024-03-23T10:13:43;7.00;99.90
24518;DHT22;12678;51.336;12.406;2024-03-23T10:16:10;7.00;99.90
24518;DHT22;12678;51.336;12.406;2024-03-23T10:18:39;7.00;99.90
24518;DHT22;12678;51.336;12.406;2024-03-23T10:21:09;6.90;99.90
24518;DHT22;12678;51.336;12.406;2024-03-23T10:23:43;6.90;99.90
24518;DHT22;12678;51.336;12.406;2024-03-23T10:26:19;6.90;99.90
24518;DHT22;12678;51.336;12.406;2024-03-23T10:29:01;6.80;99.90
24518;DHT22;12678;51.336;12.406;2024-03-23T10:31:29;6.90;99.90
24518;DHT22;12678;51.336;12.406;2024-03-23T10:33:55;6.80;99.90
24518;DHT22;12678;51.336;12.406;2024-03-23T10:36:22;6.80;99.90
24518;DHT22;12678;51.336;12.406;2024-03-23T10:38:51;6.80;99.90
24518;DHT22;12678;51.336;12.406;2024-03-23T10:41:18;6.80;99.90
24518;DHT22;12678;51.336;12.406;2024-03-23T10:43:49;6.80;99.90
24518;DHT22;12678;51.336;12.406;2024-03-23T10:46:21;6.70;99.90
24518;DHT22;12678;51.336;12.406;2024-03-23T10:48:46;6.80;99.90
24518;DHT22;12678;51.336;12.406;2024-03-23T10:51:14;6.90;99.90
24518;DHT22;12678;51.336;12.406;2024-03-23T10:53:39;6.80;99.90
24518;DHT22;12678;51.336;12.406;2024-03-23T10:56:06;6.70;99.90
24518;DHT22;12678;51.336;12.406;2024-03-23T10:58:45;6.80;99.90
24518;DHT22;12678;51.336;12.406;2024-03-23T11:01:15;6.80;99.90
24518;DHT22;12678;51.336;12.406;2024-03-23T11:03:45;6.80;99.90
24518;DHT22;12678;51.336;12.406;2024-03-23T11:06:34;6.80;99.90
24518;DHT22;12678;51.336;12.406;2024-03-23T11:09:00;6.90;99.90
24518;DHT22;12678;51.336;12.406;2024-03-23T11:11:26;6.90;99.90
24518;DHT22;12678;51.336;12.406;2024-03-23T11:13:55;6.90;99.90
24518;DHT22;12678;51.336;12.406;2024-03-23T11:16:28;7.10;99.90
24518;DHT22;12678;51.336;12.406;2024-03-23T11:19:34;7.20;99.90
24518;DHT22;12678;51.336;12.406;2024-03-23T11:22:00;7.20;99.90
24518;DHT22;12678;51.336;12.406;2024-03-23T11:24:26;7.30;99.90
24518;DHT22;12678;51.336;12.406;2024-03-23T11:26:52;7.30;99.90
24518;DHT22;12678;51.336;12.406;2024-03-23T11:29:18;7.40;99.90
24518;DHT22;12678;51.336;12.406;2024-03-23T11:31:50;7.50;99.90
24518;DHT22;12678;51.336;12.406;2024-03-23T11:34:17;7.50;99.90
24518;DHT22;12678;51.336;12.406;2024-03-23T11:36:43;7.70;99.90
24518;DHT22;12678;51.336;12.406;2024-03-23T11:39:16;7.80;99.90
24518;DHT22;12678;51.336;12.406;2024-03-23T11:41:49;7.80;99.90
24518;DHT22;12678;51.336;12.406;2024-03-23T11:44:16;8.00;99.90
24518;DHT22;12678;51.336;12.406;2024-03-23T11:46:42;8.10;99.90
24518;DHT22;12678;51.336;12.406;2024-03-23T11:49:20;8.20;99.90
24518;DHT22;12678;51.336;12.406;2024-03-23T11:51:47;8.40;99.90
24518;DHT22;12678;51.336;12.406;2024-03-23T11:54:13;8.50;99.90
24518;DHT22;12678;51.336;12.406;2024-03-23T11:56:38;8.70;99.90
24518;DHT22;12678;51.336;12.406;2024-03-23T11:59:04;8.60;99.90
24518;DHT22;12678;51.336;12.406;2024-03-23T12:01:31;8.60;99.90
24518;DHT22;12678;51.336;12.406;2024-03-23T12:03:56;8.60;99.90
24518;DHT22;12678;51.336;12.406;2024-03-23T12:06:22;8.60;99.90
24518;DHT22;12678;51.336;12.406;2024-03-23T12:08:47;8.60;99.90
24518;DHT22;12678;51.336;12.406;2024-03-23T12:11:14;8.60;99.90
24518;DHT22;12678;51.336;12.406;2024-03-23T12:13:41;8.60;99.90
24518;DHT22;12678;51.336;12.406;2024-03-23T12:18:41;8.60;99.90
24518;DHT22;12678;51.336;12.406;2024-03-23T12:21:07;8.70;99.90
24518;DHT22;12678;51.336;12.406;2024-03-23T12:23:34;8.70;99.90
24518;DHT22;12678;51.336;12.406;2024-03-23T12:26:00;8.80;99.90
24518;DHT22;12678;51.336;12.406;2024-03-23T12:28:25;8.90;99.90
24518;DHT22;12678;51.336;12.406;2024-03-23T12:30:51;9.00;99.90
24518;DHT22;12678;51.336;12.406;2024-03-23T12:33:18;9.10;99.90
24518;DHT22;12678;51.336;12.406;2024-03-23T12:35:44;9.20;99.90
24518;DHT22;12678;51.336;12.406;2024-03-23T12:38:09;9.40;99.90
24518;DHT22;12678;51.336;12.406;2024-03-23T12:40:35;9.40;99.90
24518;DHT22;12678;51.336;12.406;2024-03-23T12:43:00;9.50;99.90
24518;DHT22;12678;51.336;12.406;2024-03-23T12:45:26;9.60;99.90
24518;DHT22;12678;51.336;12.406;2024-03-23T12:47:52;9.70;99.90
24518;DHT22;12678;51.336;12.406;2024-03-23T12:50:21;9.80;99.90
24518;DHT22;12678;51.336;12.406;2024-03-23T12:52:46;9.80;99.90
24518;DHT22;12678;51.336;12.406;2024-03-23T12:55:12;9.90;99.90
24518;DHT22;12678;51.336;12.406;2024-03-23T12:57:38;9.90;99.90
24518;DHT22;12678;51.336;12.406;2024-03-23T13:00:04;10.00;99.90
24518;DHT22;12678;51.336;12.406;2024-03-23T13:02:30;9.90;99.90
24518;DHT22;12678;51.336;12.406;2024-03-23T13:04:56;9.90;99.90
24518;DHT22;12678;51.336;12.406;2024-03-23T13:07:22;10.00;99.90
24518;DHT22;12678;51.336;12.406;2024-03-23T13:09:52;10.10;99.90
24518;DHT22;12678;51.336;12.406;2024-03-23T13:12:22;10.30;99.90
24518;DHT22;12678;51.336;12.406;2024-03-23T13:14:47;10.40;99.90
24518;DHT22;12678;51.336;12.406;2024-03-23T13:17:13;10.50;99.90
24518;DHT22;12678;51.336;12.406;2024-03-23T13:19:39;10.50;99.90
24518;DHT22;12678;51.336;12.406;2024-03-23T13:22:05;10.40;99.90
24518;DHT22;12678;51.336;12.406;2024-03-23T13:24:31;10.40;99.90
24518;DHT22;12678;51.336;12.406;2024-03-23T13:26:57;10.40;99.90
24518;DHT22;12678;51.336;12.406;2024-03-23T13:29:23;10.30;99.90
24518;DHT22;12678;51.336;12.406;2024-03-23T13:31:50;10.10;99.90
24518;DHT22;12678;51.336;12.406;2024-03-23T13:34:17;10.10;99.90
24518;DHT22;12678;51.336;12.406;2024-03-23T13:36:43;10.10;99.90
24518;DHT22;12678;51.336;12.406;2024-03-23T13:39:10;10.10;99.90
24518;DHT22;12678;51.336;12.406;2024-03-23T13:41:45;10.00;99.90
24518;DHT22;12678;51.336;12.406;2024-03-23T13:44:12;10.00;99.90
24518;DHT22;12678;51.336;12.406;2024-03-23T13:46:39;10.10;99.90
24518;DHT22;12678;51.336;12.406;2024-03-23T13:49:05;10.20;99.90
24518;DHT22;12678;51.336;12.406;2024-03-23T13:51:32;10.30;99.90
24518;DHT22;12678;51.336;12.406;2024-03-23T13:53:58;10.50;99.90
24518;DHT22;12678;51.336;12.406;2024-03-23T13:56:26;10.60;99.90
24518;DHT22;12678;51.336;12.406;2024-03-23T13:58:55;10.70;99.90
24518;DHT22;12678;51.336;12.406;2024-03-23T14:01:20;10.70;99.90
24518;DHT22;12678;51.336;12.406;2024-03-23T14:03:46;10.50;99.90
24518;DHT22;12678;51.336;12.406;2024-03-23T14:06:12;10.20;99.90
24518;DHT22;12678;51.336;12.406;2024-03-23T14:08:38;10.00;99.90
24518;DHT22;12678;51.336;12.406;2024-03-23T14:11:07;9.70;99.90
24518;DHT22;12678;51.336;12.406;2024-03-23T14:13:34;9.40;99.90
24518;DHT22;12678;51.336;12.406;2024-03-23T14:16:00;9.20;99.90
24518;DHT22;12678;51.336;12.406;2024-03-23T14:18:26;9.20;99.90
24518;DHT22;12678;51.336;12.406;2024-03-23T14:20:52;9.10;99.90
24518;DHT22;12678;51.336;12.406;2024-03-23T14:23:19;9.10;99.90
24518;DHT22;12678;51.336;12.406;2024-03-23T14:25:44;9.10;99.90
24518;DHT22;12678;51.336;12.406;2024-03-23T14:28:10;9.10;99.90
24518;DHT22;12678;51.336;12.406;2024-03-23T14:30:43;9.20;99.90
24518;DHT22;12678;51.336;12.406;2024-03-23T14:33:09;9.20;99.90
24518;DHT22;12678;51.336;12.406;2024-03-23T14:35:35;9.30;99.90
24518;DHT22;12678;51.336;12.406;2024-03-23T14:38:00;9.40;99.90
24518;DHT22;12678;51.336;12.406;2024-03-23T14:40:26;9.10;99.90
24518;DHT22;12678;51.336;12.406;2024-03-23T14:42:55;9.00;99.90
24518;DHT22;12678;51.336;12.406;2024-03-23T14:45:21;8.70;99.90
24518;DHT22;12678;51.336;12.406;2024-03-23T14:47:47;8.60;99.90
24518;DHT22;12678;51.336;12.406;2024-03-23T14:50:13;8.50;99.90
24518;DHT22;12678;51.336;12.406;2024-03-23T14:52:45;8.40;99.90
24518;DHT22;12678;51.336;12.406;2024-03-23T14:55:11;8.30;99.90
24518;DHT22;12678;51.336;12.406;2024-03-23T14:57:37;8.20;99.90
24518;DHT22;12678;51.336;12.406;2024-03-23T15:00:07;8.20;99.90
24518;DHT22;12678;51.336;12.406;2024-03-23T15:02:33;8.10;99.90
24518;DHT22;12678;51.336;12.406;2024-03-23T15:05:00;8.00;99.90
24518;DHT22;12678;51.336;12.406;2024-03-23T15:07:25;7.90;99.90
24518;DHT22;12678;51.336;12.406;2024-03-23T15:09:51;7.90;99.90
24518;DHT22;12678;51.336;12.406;2024-03-23T15:12:17;7.80;99.90
24518;DHT22;12678;51.336;12.406;2024-03-23T15:14:42;7.80;99.90
24518;DHT22;12678;51.336;12.406;2024-03-23T15:17:08;7.80;99.90
24518;DHT22;12678;51.336;12.406;2024-03-23T15:19:34;7.80;99.90
24518;DHT22;12678;51.336;12.406;2024-03-23T15:22:00;7.80;99.90
24518;DHT22;12678;51.336;12.406;2024-03-23T15:24:25;7.80;99.90
24518;DHT22;12678;51.336;12.406;2024-03-23T15:26:51;7.90;99.90
24518;DHT22;12678;51.336;12.406;2024-03-23T15:29:17;8.00;99.90
24518;DHT22;12678;51.336;12.406;2024-03-23T15:31:44;8.00;99.90
24518;DHT22;12678;51.336;12.406;2024-03-23T15:34:11;8.00;99.90
24518;DHT22;12678;51.336;12.406;2024-03-23T15:36:37;8.00;99.90
24518;DHT22;12678;51.336;12.406;2024-03-23T15:39:06;7.90;99.90
24518;DHT22;12678;51.336;12.406;2024-03-23T15:41:34;7.80;99.90
24518;DHT22;12678;51.336;12.406;2024-03-23T15:44:01;7.70;99.90
24518;DHT22;12678;51.336;12.406;2024-03-23T15:46:26;7.60;99.90
24518;DHT22;12678;51.336;12.406;2024-03-23T15:48:52;7.70;99.90
24518;DHT22;12678;51.336;12.406;2024-03-23T15:51:18;7.70;99.90
24518;DHT22;12678;51.336;12.406;2024-03-23T15:53:43;7.70;99.90
24518;DHT22;12678;51.336;12.406;2024-03-23T15:56:09;7.80;99.90
24518;DHT22;12678;51.336;12.406;2024-03-23T15:58:35;7.80;99.90
24518;DHT22;12678;51.336;12.406;2024-03-23T16:01:05;7.80;99.90
24518;DHT22;12678;51.336;12.406;2024-03-23T16:03:32;7.90;99.90
24518;DHT22;12678;51.336;12.406;2024-03-23T16:06:00;7.90;99.90
24518;DHT22;12678;51.336;12.406;2024-03-23T16:08:26;8.00;99.90
24518;DHT22;12678;51.336;12.406;2024-03-23T16:10:52;8.00;99.90
24518;DHT22;12678;51.336;12.406;2024-03-23T16:13:18;8.00;99.90
24518;DHT22;12678;51.336;12.406;2024-03-23T16:15:45;8.10;99.90
24518;DHT22;12678;51.336;12.406;2024-03-23T16:18:11;8.10;99.90
24518;DHT22;12678;51.336;12.406;2024-03-23T16:20:37;8.10;99.90
24518;DHT22;12678;51.336;12.406;2024-03-23T16:23:03;8.10;99.90